sensor_id;sensor_type;location;lat;lon;timestamp;P1;durP1;ratioP1;P2;durP2;ratioP2
5191;SDS011;2615;44.524;11.284;2023-03-22T00:01:17;16.83;;;13.20;;
5191;SDS011;2615;44.524;11.284;2023-03-22T00:03:46;16.20;;;13.77;;
5191;SDS011;2615;44.524;11.284;2023-03-22T00:06:17;14.90;;;13.30;;
5191;SDS011;2615;44.524;11.284;2023-03-22T00:08:47;16.13;;;13.67;;
5191;SDS011;2615;44.524;11.284;2023-03-22T00:11:16;21.90;;;13.30;;
5191;SDS011;2615;44.524;11.284;2023-03-22T00:13:45;16.17;;;13.93;;
5191;SDS011;2615;44.524;11.284;2023-03-22T00:16:13;17.80;;;15.07;;
5191;SDS011;2615;44.524;11.284;2023-03-22T00:18:42;18.30;;;14.83;;
5191;SDS011;2615;44.524;11.284;2023-03-22T00:21:12;18.63;;;13.43;;
5191;SDS011;2615;44.524;11.284;2023-03-22T00:23:43;15.37;;;13.10;;
5191;SDS011;2615;44.524;11.284;2023-03-22T00:26:12;16.90;;;15.10;;
5191;SDS011;2615;44.524;11.284;2023-03-22T00:28:41;19.00;;;14.50;;
5191;SDS011;2615;44.524;11.284;2023-03-22T00:31:09;19.60;;;13.73;;
5191;SDS011;2615;44.524;11.284;2023-03-22T00:33:37;14.70;;;12.27;;
5191;SDS011;2615;44.524;11.284;2023-03-22T00:36:07;14.23;;;12.57;;
5191;SDS011;2615;44.524;11.284;2023-03-22T00:38:37;13.43;;;11.73;;
5191;SDS011;2615;44.524;11.284;2023-03-22T00:41:11;15.13;;;11.87;;
5191;SDS011;2615;44.524;11.284;2023-03-22T00:43:41;13.97;;;12.33;;
5191;SDS011;2615;44.524;11.284;2023-03-22T00:46:10;15.53;;;13.57;;
5191;SDS011;2615;44.524;11.284;2023-03-22T00:48:39;13.73;;;12.33;;
5191;SDS011;2615;44.524;11.284;2023-03-22T00:51:08;14.40;;;11.23;;
5191;SDS011;2615;44.524;11.284;2023-03-22T00:53:37;13.60;;;10.63;;
5191;SDS011;2615;44.524;11.284;2023-03-22T00:56:09;11.87;;;10.50;;
5191;SDS011;2615;44.524;11.284;2023-03-22T00:58:41;18.33;;;12.20;;
5191;SDS011;2615;44.524;11.284;2023-03-22T01:01:09;14.13;;;11.67;;
5191;SDS011;2615;44.524;11.284;2023-03-22T01:03:39;15.53;;;11.80;;
5191;SDS011;2615;44.524;11.284;2023-03-22T01:06:08;15.67;;;13.80;;
5191;SDS011;2615;44.524;11.284;2023-03-22T01:08:37;12.93;;;11.63;;
5191;SDS011;2615;44.524;11.284;2023-03-22T01:11:05;13.60;;;12.17;;
5191;SDS011;2615;44.524;11.284;2023-03-22T01:13:35;13.23;;;11.70;;
5191;SDS011;2615;44.524;11.284;2023-03-22T01:16:05;15.97;;;11.30;;
5191;SDS011;2615;44.524;11.284;2023-03-22T01:18:34;16.93;;;12.07;;
5191;SDS011;2615;44.524;11.284;2023-03-22T01:21:03;14.30;;;12.57;;
5191;SDS011;2615;44.524;11.284;2023-03-22T01:23:31;13.43;;;11.93;;
5191;SDS011;2615;44.524;11.284;2023-03-22T01:26:00;15.60;;;10.77;;
5191;SDS011;2615;44.524;11.284;2023-03-22T01:28:28;13.20;;;11.50;;
5191;SDS011;2615;44.524;11.284;2023-03-22T01:31:00;12.83;;;11.50;;
5191;SDS011;2615;44.524;11.284;2023-03-22T01:33:29;12.80;;;11.50;;
5191;SDS011;2615;44.524;11.284;2023-03-22T01:35:57;16.40;;;12.13;;
5191;SDS011;2615;44.524;11.284;2023-03-22T01:38:25;13.17;;;11.30;;
5191;SDS011;2615;44.524;11.284;2023-03-22T01:40:53;12.70;;;11.40;;
5191;SDS011;2615;44.524;11.284;2023-03-22T01:43:22;13.93;;;11.40;;
5191;SDS011;2615;44.524;11.284;2023-03-22T01:45:50;15.17;;;11.47;;
5191;SDS011;2615;44.524;11.284;2023-03-22T01:48:22;14.10;;;12.53;;
5191;SDS011;2615;44.524;11.284;2023-03-22T01:50:58;17.90;;;11.67;;
5191;SDS011;2615;44.524;11.284;2023-03-22T01:53:31;13.80;;;11.70;;
5191;SDS011;2615;44.524;11.284;2023-03-22T01:56:03;12.80;;;11.50;;
5191;SDS011;2615;44.524;11.284;2023-03-22T01:58:32;12.87;;;10.87;;
5191;SDS011;2615;44.524;11.284;2023-03-22T02:01:04;14.93;;;10.83;;
5191;SDS011;2615;44.524;11.284;2023-03-22T02:03:36;15.13;;;11.70;;
5191;SDS011;2615;44.524;11.284;2023-03-22T02:06:07;12.70;;;11.40;;
5191;SDS011;2615;44.524;11.284;2023-03-22T02:08:35;14.03;;;11.20;;
5191;SDS011;2615;44.524;11.284;2023-03-22T02:11:05;13.47;;;11.57;;
5191;SDS011;2615;44.524;11.284;2023-03-22T02:13:43;14.23;;;11.77;;
5191;SDS011;2615;44.524;11.284;2023-03-22T02:16:38;16.90;;;12.43;;
5191;SDS011;2615;44.524;11.284;2023-03-22T02:22:41;14.93;;;10.93;;
5191;SDS011;2615;44.524;11.284;2023-03-22T02:25:30;12.53;;;11.20;;
5191;SDS011;2615;44.524;11.284;2023-03-22T02:28:21;16.93;;;11.93;;
5191;SDS011;2615;44.524;11.284;2023-03-22T02:31:01;11.57;;;9.67;;
5191;SDS011;2615;44.524;11.284;2023-03-22T02:36:48;12.13;;;10.47;;
5191;SDS011;2615;44.524;11.284;2023-03-22T02:39:43;12.47;;;10.90;;
5191;SDS011;2615;44.524;11.284;2023-03-22T02:42:30;13.37;;;10.27;;
5191;SDS011;2615;44.524;11.284;2023-03-22T02:45:10;12.70;;;11.40;;
5191;SDS011;2615;44.524;11.284;2023-03-22T02:47:41;13.37;;;10.13;;
5191;SDS011;2615;44.524;11.284;2023-03-22T02:50:21;11.73;;;10.53;;
5191;SDS011;2615;44.524;11.284;2023-03-22T02:52:54;12.17;;;10.77;;
5191;SDS011;2615;44.524;11.284;2023-03-22T02:55:31;13.03;;;11.40;;
5191;SDS011;2615;44.524;11.284;2023-03-22T02:58:05;12.30;;;11.10;;
5191;SDS011;2615;44.524;11.284;2023-03-22T03:00:39;12.73;;;11.47;;
5191;SDS011;2615;44.524;11.284;2023-03-22T03:03:09;11.80;;;10.00;;
5191;SDS011;2615;44.524;11.284;2023-03-22T03:05:44;13.10;;;11.63;;
5191;SDS011;2615;44.524;11.284;2023-03-22T03:08:14;11.53;;;10.20;;
5191;SDS011;2615;44.524;11.284;2023-03-22T03:10:45;14.60;;;11.37;;
5191;SDS011;2615;44.524;11.284;2023-03-22T03:13:15;12.30;;;10.30;;
5191;SDS011;2615;44.524;11.284;2023-03-22T03:15:45;11.93;;;10.70;;
5191;SDS011;2615;44.524;11.284;2023-03-22T03:18:22;12.10;;;9.10;;
5191;SDS011;2615;44.524;11.284;2023-03-22T03:21:01;10.97;;;9.87;;
5191;SDS011;2615;44.524;11.284;2023-03-22T03:23:39;11.90;;;9.77;;
5191;SDS011;2615;44.524;11.284;2023-03-22T03:26:19;14.43;;;11.13;;
5191;SDS011;2615;44.524;11.284;2023-03-22T03:28:51;13.30;;;11.87;;
5191;SDS011;2615;44.524;11.284;2023-03-22T03:31:27;12.00;;;10.80;;
5191;SDS011;2615;44.524;11.284;2023-03-22T03:34:04;14.33;;;11.27;;
5191;SDS011;2615;44.524;11.284;2023-03-22T03:36:38;10.90;;;9.80;;
5191;SDS011;2615;44.524;11.284;2023-03-22T03:39:13;13.60;;;11.17;;
5191;SDS011;2615;44.524;11.284;2023-03-22T03:41:45;11.73;;;10.20;;
5191;SDS011;2615;44.524;11.284;2023-03-22T03:44:16;13.13;;;10.30;;
5191;SDS011;2615;44.524;11.284;2023-03-22T03:46:45;12.27;;;9.83;;
5191;SDS011;2615;44.524;11.284;2023-03-22T03:49:15;12.00;;;10.70;;
5191;SDS011;2615;44.524;11.284;2023-03-22T03:51:45;12.40;;;11.20;;
5191;SDS011;2615;44.524;11.284;2023-03-22T03:54:14;12.13;;;10.87;;
5191;SDS011;2615;44.524;11.284;2023-03-22T03:56:43;15.10;;;11.60;;
5191;SDS011;2615;44.524;11.284;2023-03-22T03:59:13;12.80;;;10.80;;
5191;SDS011;2615;44.524;11.284;2023-03-22T04:01:42;13.20;;;11.83;;
5191;SDS011;2615;44.524;11.284;2023-03-22T04:04:16;13.90;;;10.90;;
5191;SDS011;2615;44.524;11.284;2023-03-22T04:06:52;14.20;;;11.07;;
5191;SDS011;2615;44.524;11.284;2023-03-22T04:09:22;15.23;;;10.47;;
5191;SDS011;2615;44.524;11.284;2023-03-22T04:11:53;12.43;;;9.97;;
5191;SDS011;2615;44.524;11.284;2023-03-22T04:14:22;13.23;;;10.57;;
5191;SDS011;2615;44.524;11.284;2023-03-22T04:16:51;15.43;;;11.07;;
5191;SDS011;2615;44.524;11.284;2023-03-22T04:19:20;13.73;;;11.37;;
5191;SDS011;2615;44.524;11.284;2023-03-22T04:21:49;14.37;;;11.93;;
5191;SDS011;2615;44.524;11.284;2023-03-22T04:24:18;13.30;;;12.00;;
5191;SDS011;2615;44.524;11.284;2023-03-22T04:26:47;11.13;;;9.77;;
5191;SDS011;2615;44.524;11.284;2023-03-22T04:29:16;13.70;;;11.80;;
5191;SDS011;2615;44.524;11.284;2023-03-22T04:31:45;13.40;;;10.53;;
5191;SDS011;2615;44.524;11.284;2023-03-22T04:34:13;12.47;;;10.27;;
5191;SDS011;2615;44.524;11.284;2023-03-22T04:36:41;13.40;;;11.13;;
5191;SDS011;2615;44.524;11.284;2023-03-22T04:39:10;14.30;;;10.97;;
5191;SDS011;2615;44.524;11.284;2023-03-22T04:41:38;11.87;;;10.67;;
5191;SDS011;2615;44.524;11.284;2023-03-22T04:44:06;12.57;;;11.10;;
5191;SDS011;2615;44.524;11.284;2023-03-22T04:46:36;14.73;;;11.40;;
5191;SDS011;2615;44.524;11.284;2023-03-22T04:49:04;14.43;;;11.00;;
5191;SDS011;2615;44.524;11.284;2023-03-22T04:51:32;12.83;;;11.10;;
5191;SDS011;2615;44.524;11.284;2023-03-22T04:54:00;15.83;;;11.73;;
5191;SDS011;2615;44.524;11.284;2023-03-22T04:56:29;11.27;;;9.83;;
5191;SDS011;2615;44.524;11.284;2023-03-22T04:58:57;12.47;;;10.40;;
5191;SDS011;2615;44.524;11.284;2023-03-22T05:01:25;20.13;;;11.30;;
5191;SDS011;2615;44.524;11.284;2023-03-22T05:03:54;16.63;;;10.67;;
5191;SDS011;2615;44.524;11.284;2023-03-22T05:06:22;11.53;;;10.00;;
5191;SDS011;2615;44.524;11.284;2023-03-22T05:08:50;10.33;;;9.23;;
5191;SDS011;2615;44.524;11.284;2023-03-22T05:11:18;14.97;;;10.83;;
5191;SDS011;2615;44.524;11.284;2023-03-22T05:13:47;13.97;;;9.60;;
5191;SDS011;2615;44.524;11.284;2023-03-22T05:16:15;12.30;;;10.13;;
5191;SDS011;2615;44.524;11.284;2023-03-22T05:18:43;11.97;;;9.60;;
5191;SDS011;2615;44.524;11.284;2023-03-22T05:21:13;21.70;;;11.80;;
5191;SDS011;2615;44.524;11.284;2023-03-22T05:23:43;12.60;;;10.53;;
5191;SDS011;2615;44.524;11.284;2023-03-22T05:26:12;12.50;;;11.10;;
5191;SDS011;2615;44.524;11.284;2023-03-22T05:28:41;11.67;;;10.40;;
5191;SDS011;2615;44.524;11.284;2023-03-22T05:31:10;13.03;;;10.43;;
5191;SDS011;2615;44.524;11.284;2023-03-22T05:33:40;13.07;;;10.50;;
5191;SDS011;2615;44.524;11.284;2023-03-22T05:36:09;14.07;;;11.10;;
5191;SDS011;2615;44.524;11.284;2023-03-22T05:38:39;12.07;;;9.53;;
5191;SDS011;2615;44.524;11.284;2023-03-22T05:41:07;38.70;;;14.10;;
5191;SDS011;2615;44.524;11.284;2023-03-22T05:43:35;17.30;;;11.60;;
5191;SDS011;2615;44.524;11.284;2023-03-22T05:46:04;13.73;;;10.93;;
5191;SDS011;2615;44.524;11.284;2023-03-22T05:48:33;14.00;;;10.63;;
5191;SDS011;2615;44.524;11.284;2023-03-22T05:51:04;11.93;;;10.23;;
5191;SDS011;2615;44.524;11.284;2023-03-22T05:53:33;12.53;;;10.90;;
5191;SDS011;2615;44.524;11.284;2023-03-22T05:56:03;12.17;;;10.87;;
5191;SDS011;2615;44.524;11.284;2023-03-22T05:58:35;13.17;;;10.70;;
5191;SDS011;2615;44.524;11.284;2023-03-22T06:01:03;13.27;;;10.60;;
5191;SDS011;2615;44.524;11.284;2023-03-22T06:03:32;19.20;;;11.80;;
5191;SDS011;2615;44.524;11.284;2023-03-22T06:06:01;14.50;;;11.17;;
5191;SDS011;2615;44.524;11.284;2023-03-22T06:08:32;15.60;;;10.77;;
5191;SDS011;2615;44.524;11.284;2023-03-22T06:11:00;12.77;;;11.37;;
5191;SDS011;2615;44.524;11.284;2023-03-22T06:13:29;14.30;;;11.13;;
5191;SDS011;2615;44.524;11.284;2023-03-22T06:15:58;15.87;;;10.80;;
5191;SDS011;2615;44.524;11.284;2023-03-22T06:18:26;15.33;;;11.13;;
5191;SDS011;2615;44.524;11.284;2023-03-22T06:20:54;14.50;;;10.90;;
5191;SDS011;2615;44.524;11.284;2023-03-22T06:23:23;16.73;;;10.57;;
5191;SDS011;2615;44.524;11.284;2023-03-22T06:25:51;13.93;;;11.30;;
5191;SDS011;2615;44.524;11.284;2023-03-22T06:28:19;19.73;;;12.90;;
5191;SDS011;2615;44.524;11.284;2023-03-22T06:30:49;15.00;;;11.40;;
5191;SDS011;2615;44.524;11.284;2023-03-22T06:33:17;15.00;;;11.33;;
5191;SDS011;2615;44.524;11.284;2023-03-22T06:35:45;16.40;;;10.73;;
5191;SDS011;2615;44.524;11.284;2023-03-22T06:38:13;14.10;;;11.53;;
5191;SDS011;2615;44.524;11.284;2023-03-22T06:40:41;14.87;;;11.60;;
5191;SDS011;2615;44.524;11.284;2023-03-22T06:43:09;14.70;;;12.23;;
5191;SDS011;2615;44.524;11.284;2023-03-22T06:45:37;16.83;;;11.53;;
5191;SDS011;2615;44.524;11.284;2023-03-22T06:48:07;13.70;;;12.00;;
5191;SDS011;2615;44.524;11.284;2023-03-22T06:50:35;12.57;;;10.43;;
5191;SDS011;2615;44.524;11.284;2023-03-22T06:53:07;16.03;;;12.63;;
5191;SDS011;2615;44.524;11.284;2023-03-22T06:55:35;16.03;;;11.93;;
5191;SDS011;2615;44.524;11.284;2023-03-22T06:58:03;16.93;;;14.80;;
5191;SDS011;2615;44.524;11.284;2023-03-22T07:00:31;17.80;;;12.33;;
5191;SDS011;2615;44.524;11.284;2023-03-22T07:02:59;16.20;;;12.43;;
5191;SDS011;2615;44.524;11.284;2023-03-22T07:05:29;18.67;;;11.63;;
5191;SDS011;2615;44.524;11.284;2023-03-22T07:07:57;16.97;;;14.03;;
5191;SDS011;2615;44.524;11.284;2023-03-22T07:10:26;17.53;;;12.47;;
5191;SDS011;2615;44.524;11.284;2023-03-22T07:12:54;14.90;;;10.80;;
5191;SDS011;2615;44.524;11.284;2023-03-22T07:15:22;15.47;;;10.83;;
5191;SDS011;2615;44.524;11.284;2023-03-22T07:17:50;20.57;;;11.73;;
5191;SDS011;2615;44.524;11.284;2023-03-22T07:20:18;16.90;;;11.77;;
5191;SDS011;2615;44.524;11.284;2023-03-22T07:22:49;15.60;;;10.50;;
5191;SDS011;2615;44.524;11.284;2023-03-22T07:25:17;16.13;;;11.50;;
5191;SDS011;2615;44.524;11.284;2023-03-22T07:27:45;14.13;;;11.97;;
5191;SDS011;2615;44.524;11.284;2023-03-22T07:30:14;14.30;;;11.93;;
5191;SDS011;2615;44.524;11.284;2023-03-22T07:32:42;14.57;;;11.67;;
5191;SDS011;2615;44.524;11.284;2023-03-22T07:35:10;17.23;;;11.30;;
5191;SDS011;2615;44.524;11.284;2023-03-22T07:37:38;14.70;;;10.83;;
5191;SDS011;2615;44.524;11.284;2023-03-22T07:40:08;11.70;;;10.50;;
5191;SDS011;2615;44.524;11.284;2023-03-22T07:42:37;13.43;;;11.20;;
5191;SDS011;2615;44.524;11.284;2023-03-22T07:45:06;12.90;;;11.13;;
5191;SDS011;2615;44.524;11.284;2023-03-22T07:47:34;14.93;;;12.50;;
5191;SDS011;2615;44.524;11.284;2023-03-22T07:50:09;17.50;;;11.97;;
5191;SDS011;2615;44.524;11.284;2023-03-22T07:52:38;16.67;;;12.53;;
5191;SDS011;2615;44.524;11.284;2023-03-22T07:55:09;16.37;;;13.70;;
5191;SDS011;2615;44.524;11.284;2023-03-22T07:57:39;16.50;;;13.13;;
5191;SDS011;2615;44.524;11.284;2023-03-22T08:00:07;17.57;;;14.13;;
5191;SDS011;2615;44.524;11.284;2023-03-22T08:02:37;15.93;;;13.00;;
5191;SDS011;2615;44.524;11.284;2023-03-22T08:05:05;17.97;;;15.23;;
5191;SDS011;2615;44.524;11.284;2023-03-22T08:07:34;18.33;;;15.63;;
5191;SDS011;2615;44.524;11.284;2023-03-22T08:10:03;24.73;;;15.57;;
5191;SDS011;2615;44.524;11.284;2023-03-22T08:12:33;16.23;;;14.40;;
5191;SDS011;2615;44.524;11.284;2023-03-22T08:15:01;26.50;;;15.20;;
5191;SDS011;2615;44.524;11.284;2023-03-22T08:17:29;22.30;;;17.37;;
5191;SDS011;2615;44.524;11.284;2023-03-22T08:19:57;23.47;;;18.77;;
5191;SDS011;2615;44.524;11.284;2023-03-22T08:22:26;24.67;;;16.73;;
5191;SDS011;2615;44.524;11.284;2023-03-22T08:24:55;23.40;;;16.43;;
5191;SDS011;2615;44.524;11.284;2023-03-22T08:27:23;22.20;;;17.10;;
5191;SDS011;2615;44.524;11.284;2023-03-22T08:29:52;23.43;;;19.03;;
5191;SDS011;2615;44.524;11.284;2023-03-22T08:32:21;21.67;;;17.90;;
5191;SDS011;2615;44.524;11.284;2023-03-22T08:34:49;27.93;;;20.60;;
5191;SDS011;2615;44.524;11.284;2023-03-22T08:37:18;24.03;;;19.50;;
5191;SDS011;2615;44.524;11.284;2023-03-22T08:39:46;27.13;;;20.07;;
5191;SDS011;2615;44.524;11.284;2023-03-22T08:42:14;19.43;;;17.03;;
5191;SDS011;2615;44.524;11.284;2023-03-22T08:44:42;25.93;;;20.57;;
5191;SDS011;2615;44.524;11.284;2023-03-22T08:47:12;27.20;;;20.67;;
5191;SDS011;2615;44.524;11.284;2023-03-22T08:49:40;29.97;;;22.03;;
5191;SDS011;2615;44.524;11.284;2023-03-22T08:52:08;23.23;;;19.87;;
5191;SDS011;2615;44.524;11.284;2023-03-22T08:54:37;27.07;;;20.73;;
5191;SDS011;2615;44.524;11.284;2023-03-22T08:57:05;27.77;;;22.30;;
5191;SDS011;2615;44.524;11.284;2023-03-22T08:59:34;26.57;;;22.83;;
5191;SDS011;2615;44.524;11.284;2023-03-22T09:02:02;31.73;;;24.10;;
5191;SDS011;2615;44.524;11.284;2023-03-22T09:04:32;31.23;;;23.63;;
5191;SDS011;2615;44.524;11.284;2023-03-22T09:07:00;30.50;;;24.90;;
5191;SDS011;2615;44.524;11.284;2023-03-22T09:09:29;32.30;;;23.60;;
5191;SDS011;2615;44.524;11.284;2023-03-22T09:11:57;26.40;;;21.40;;
5191;SDS011;2615;44.524;11.284;2023-03-22T09:14:25;30.23;;;21.90;;
5191;SDS011;2615;44.524;11.284;2023-03-22T09:16:53;32.63;;;25.37;;
5191;SDS011;2615;44.524;11.284;2023-03-22T09:19:21;28.50;;;25.47;;
5191;SDS011;2615;44.524;11.284;2023-03-22T09:21:50;33.97;;;27.93;;
5191;SDS011;2615;44.524;11.284;2023-03-22T09:24:19;39.43;;;27.17;;
5191;SDS011;2615;44.524;11.284;2023-03-22T09:26:47;30.37;;;24.60;;
5191;SDS011;2615;44.524;11.284;2023-03-22T09:29:15;31.50;;;24.63;;
5191;SDS011;2615;44.524;11.284;2023-03-22T09:31:44;32.87;;;26.60;;
5191;SDS011;2615;44.524;11.284;2023-03-22T09:34:14;34.43;;;26.90;;
5191;SDS011;2615;44.524;11.284;2023-03-22T09:36:43;32.83;;;27.93;;
5191;SDS011;2615;44.524;11.284;2023-03-22T09:39:12;30.53;;;27.30;;
5191;SDS011;2615;44.524;11.284;2023-03-22T09:41:43;32.60;;;27.00;;
5191;SDS011;2615;44.524;11.284;2023-03-22T09:44:14;34.60;;;26.57;;
5191;SDS011;2615;44.524;11.284;2023-03-22T09:46:49;32.30;;;24.60;;
5191;SDS011;2615;44.524;11.284;2023-03-22T09:49:21;30.10;;;25.47;;
5191;SDS011;2615;44.524;11.284;2023-03-22T09:51:53;33.63;;;25.40;;
5191;SDS011;2615;44.524;11.284;2023-03-22T09:54:26;30.20;;;25.77;;
5191;SDS011;2615;44.524;11.284;2023-03-22T09:56:58;29.40;;;25.80;;
5191;SDS011;2615;44.524;11.284;2023-03-22T09:59:31;31.90;;;25.00;;
5191;SDS011;2615;44.524;11.284;2023-03-22T10:02:13;31.10;;;25.00;;
5191;SDS011;2615;44.524;11.284;2023-03-22T10:04:59;27.87;;;24.50;;
5191;SDS011;2615;44.524;11.284;2023-03-22T10:07:41;33.57;;;28.10;;
5191;SDS011;2615;44.524;11.284;2023-03-22T10:10:25;31.90;;;25.63;;
5191;SDS011;2615;44.524;11.284;2023-03-22T10:12:54;29.13;;;25.80;;
5191;SDS011;2615;44.524;11.284;2023-03-22T10:15:28;27.73;;;23.73;;
5191;SDS011;2615;44.524;11.284;2023-03-22T10:18:01;36.10;;;27.67;;
5191;SDS011;2615;44.524;11.284;2023-03-22T10:20:35;32.57;;;27.90;;
5191;SDS011;2615;44.524;11.284;2023-03-22T10:23:05;38.67;;;33.93;;
5191;SDS011;2615;44.524;11.284;2023-03-22T10:25:40;34.30;;;29.73;;
5191;SDS011;2615;44.524;11.284;2023-03-22T10:28:13;32.77;;;28.17;;
5191;SDS011;2615;44.524;11.284;2023-03-22T10:30:44;34.47;;;27.70;;
5191;SDS011;2615;44.524;11.284;2023-03-22T10:33:20;30.23;;;24.57;;
5191;SDS011;2615;44.524;11.284;2023-03-22T10:35:57;29.40;;;25.30;;
5191;SDS011;2615;44.524;11.284;2023-03-22T10:38:27;31.23;;;23.80;;
5191;SDS011;2615;44.524;11.284;2023-03-22T10:40:58;28.97;;;26.00;;
5191;SDS011;2615;44.524;11.284;2023-03-22T10:43:29;29.40;;;25.60;;
5191;SDS011;2615;44.524;11.284;2023-03-22T10:46:01;31.87;;;25.93;;
5191;SDS011;2615;44.524;11.284;2023-03-22T10:48:33;30.13;;;26.23;;
5191;SDS011;2615;44.524;11.284;2023-03-22T10:51:03;30.33;;;25.27;;
5191;SDS011;2615;44.524;11.284;2023-03-22T10:53:33;25.80;;;23.10;;
5191;SDS011;2615;44.524;11.284;2023-03-22T10:56:08;22.60;;;20.17;;
5191;SDS011;2615;44.524;11.284;2023-03-22T10:58:40;21.27;;;18.23;;
5191;SDS011;2615;44.524;11.284;2023-03-22T11:01:10;18.13;;;16.13;;
5191;SDS011;2615;44.524;11.284;2023-03-22T11:03:40;18.43;;;16.23;;
5191;SDS011;2615;44.524;11.284;2023-03-22T11:06:10;17.47;;;15.50;;
5191;SDS011;2615;44.524;11.284;2023-03-22T11:08:40;15.30;;;13.70;;
5191;SDS011;2615;44.524;11.284;2023-03-22T11:11:16;16.73;;;13.63;;
5191;SDS011;2615;44.524;11.284;2023-03-22T11:13:50;19.20;;;16.30;;
5191;SDS011;2615;44.524;11.284;2023-03-22T11:16:26;17.40;;;15.60;;
5191;SDS011;2615;44.524;11.284;2023-03-22T11:18:55;17.90;;;16.03;;
5191;SDS011;2615;44.524;11.284;2023-03-22T11:21:28;15.23;;;13.63;;
5191;SDS011;2615;44.524;11.284;2023-03-22T11:23:59;18.30;;;13.73;;
5191;SDS011;2615;44.524;11.284;2023-03-22T11:26:33;14.93;;;13.43;;
5191;SDS011;2615;44.524;11.284;2023-03-22T11:29:09;12.37;;;11.03;;
5191;SDS011;2615;44.524;11.284;2023-03-22T11:31:52;13.53;;;12.13;;
5191;SDS011;2615;44.524;11.284;2023-03-22T11:34:23;11.17;;;9.87;;
5191;SDS011;2615;44.524;11.284;2023-03-22T11:36:53;12.30;;;11.20;;
5191;SDS011;2615;44.524;11.284;2023-03-22T11:39:23;14.20;;;10.87;;
5191;SDS011;2615;44.524;11.284;2023-03-22T11:41:56;10.83;;;9.77;;
5191;SDS011;2615;44.524;11.284;2023-03-22T11:44:27;12.07;;;10.00;;
5191;SDS011;2615;44.524;11.284;2023-03-22T11:46:59;11.23;;;10.07;;
5191;SDS011;2615;44.524;11.284;2023-03-22T11:49:32;13.07;;;9.70;;
5191;SDS011;2615;44.524;11.284;2023-03-22T11:52:07;10.03;;;8.83;;
5191;SDS011;2615;44.524;11.284;2023-03-22T11:54:37;13.40;;;8.17;;
5191;SDS011;2615;44.524;11.284;2023-03-22T11:57:10;13.67;;;9.20;;
5191;SDS011;2615;44.524;11.284;2023-03-22T11:59:46;9.60;;;8.20;;
5191;SDS011;2615;44.524;11.284;2023-03-22T12:02:17;10.63;;;8.23;;
5191;SDS011;2615;44.524;11.284;2023-03-22T12:04:51;14.87;;;10.17;;
5191;SDS011;2615;44.524;11.284;2023-03-22T12:07:26;10.13;;;8.40;;
5191;SDS011;2615;44.524;11.284;2023-03-22T12:09:57;11.87;;;9.63;;
5191;SDS011;2615;44.524;11.284;2023-03-22T12:12:32;14.23;;;10.37;;
5191;SDS011;2615;44.524;11.284;2023-03-22T12:15:03;11.67;;;9.03;;
5191;SDS011;2615;44.524;11.284;2023-03-22T12:17:34;9.70;;;8.57;;
5191;SDS011;2615;44.524;11.284;2023-03-22T12:20:11;9.73;;;8.73;;
5191;SDS011;2615;44.524;11.284;2023-03-22T12:22:47;12.87;;;8.87;;
5191;SDS011;2615;44.524;11.284;2023-03-22T12:25:19;9.20;;;8.00;;
5191;SDS011;2615;44.524;11.284;2023-03-22T12:27:51;7.70;;;6.90;;
5191;SDS011;2615;44.524;11.284;2023-03-22T12:30:22;8.17;;;7.33;;
5191;SDS011;2615;44.524;11.284;2023-03-22T12:32:55;8.37;;;6.80;;
5191;SDS011;2615;44.524;11.284;2023-03-22T12:35:28;7.33;;;6.30;;
5191;SDS011;2615;44.524;11.284;2023-03-22T12:38:00;7.70;;;6.70;;
5191;SDS011;2615;44.524;11.284;2023-03-22T12:40:36;9.97;;;6.83;;
5191;SDS011;2615;44.524;11.284;2023-03-22T12:43:10;7.77;;;5.87;;
5191;SDS011;2615;44.524;11.284;2023-03-22T12:45:43;8.00;;;6.47;;
5191;SDS011;2615;44.524;11.284;2023-03-22T12:48:15;5.70;;;4.80;;
5191;SDS011;2615;44.524;11.284;2023-03-22T12:50:47;7.17;;;6.00;;
5191;SDS011;2615;44.524;11.284;2023-03-22T12:53:18;8.67;;;6.87;;
5191;SDS011;2615;44.524;11.284;2023-03-22T12:55:48;13.13;;;7.80;;
5191;SDS011;2615;44.524;11.284;2023-03-22T12:58:18;8.27;;;6.80;;
5191;SDS011;2615;44.524;11.284;2023-03-22T13:00:48;6.60;;;5.90;;
5191;SDS011;2615;44.524;11.284;2023-03-22T13:03:22;7.77;;;6.23;;
5191;SDS011;2615;44.524;11.284;2023-03-22T13:05:58;6.80;;;5.93;;
5191;SDS011;2615;44.524;11.284;2023-03-22T13:11:38;6.30;;;5.23;;
5191;SDS011;2615;44.524;11.284;2023-03-22T13:14:08;9.10;;;6.37;;
5191;SDS011;2615;44.524;11.284;2023-03-22T13:16:49;10.00;;;4.90;;
5191;SDS011;2615;44.524;11.284;2023-03-22T13:19:26;8.53;;;4.80;;
5191;SDS011;2615;44.524;11.284;2023-03-22T13:22:12;5.97;;;4.33;;
5191;SDS011;2615;44.524;11.284;2023-03-22T13:24:59;7.33;;;5.10;;
5191;SDS011;2615;44.524;11.284;2023-03-22T13:27:33;6.77;;;4.50;;
5191;SDS011;2615;44.524;11.284;2023-03-22T13:30:06;6.77;;;5.10;;
5191;SDS011;2615;44.524;11.284;2023-03-22T13:32:44;7.43;;;5.10;;
5191;SDS011;2615;44.524;11.284;2023-03-22T13:35:22;6.00;;;3.90;;
5191;SDS011;2615;44.524;11.284;2023-03-22T13:37:55;6.43;;;4.13;;
5191;SDS011;2615;44.524;11.284;2023-03-22T13:40:31;6.53;;;4.40;;
5191;SDS011;2615;44.524;11.284;2023-03-22T13:43:09;5.17;;;4.33;;
5191;SDS011;2615;44.524;11.284;2023-03-22T13:48:55;6.53;;;4.67;;
5191;SDS011;2615;44.524;11.284;2023-03-22T13:51:40;8.90;;;5.00;;
5191;SDS011;2615;44.524;11.284;2023-03-22T13:54:15;5.20;;;4.20;;
5191;SDS011;2615;44.524;11.284;2023-03-22T13:56:49;5.30;;;4.33;;
5191;SDS011;2615;44.524;11.284;2023-03-22T13:59:22;6.00;;;4.13;;
5191;SDS011;2615;44.524;11.284;2023-03-22T14:01:57;8.47;;;5.00;;
5191;SDS011;2615;44.524;11.284;2023-03-22T14:04:32;5.20;;;3.70;;
5191;SDS011;2615;44.524;11.284;2023-03-22T14:07:07;6.17;;;3.97;;
5191;SDS011;2615;44.524;11.284;2023-03-22T14:09:47;5.07;;;4.57;;
5191;SDS011;2615;44.524;11.284;2023-03-22T14:12:18;8.13;;;4.83;;
5191;SDS011;2615;44.524;11.284;2023-03-22T14:14:50;6.23;;;4.37;;
5191;SDS011;2615;44.524;11.284;2023-03-22T14:17:28;8.30;;;5.60;;
5191;SDS011;2615;44.524;11.284;2023-03-22T14:20:00;5.80;;;5.20;;
5191;SDS011;2615;44.524;11.284;2023-03-22T14:22:34;5.80;;;5.00;;
5191;SDS011;2615;44.524;11.284;2023-03-22T14:25:05;6.33;;;4.47;;
5191;SDS011;2615;44.524;11.284;2023-03-22T14:27:34;4.53;;;3.67;;
5191;SDS011;2615;44.524;11.284;2023-03-22T14:30:02;5.47;;;4.13;;
5191;SDS011;2615;44.524;11.284;2023-03-22T14:32:31;7.07;;;4.40;;
5191;SDS011;2615;44.524;11.284;2023-03-22T14:35:06;7.53;;;5.30;;
5191;SDS011;2615;44.524;11.284;2023-03-22T14:37:37;6.43;;;4.77;;
5191;SDS011;2615;44.524;11.284;2023-03-22T14:40:11;6.23;;;5.13;;
5191;SDS011;2615;44.524;11.284;2023-03-22T14:42:42;7.87;;;5.87;;
5191;SDS011;2615;44.524;11.284;2023-03-22T14:45:12;8.20;;;5.90;;
5191;SDS011;2615;44.524;11.284;2023-03-22T14:47:45;6.00;;;5.40;;
5191;SDS011;2615;44.524;11.284;2023-03-22T14:50:13;7.10;;;6.37;;
5191;SDS011;2615;44.524;11.284;2023-03-22T14:52:41;7.60;;;6.57;;
5191;SDS011;2615;44.524;11.284;2023-03-22T14:55:14;7.43;;;5.70;;
5191;SDS011;2615;44.524;11.284;2023-03-22T14:57:46;6.23;;;5.57;;
5191;SDS011;2615;44.524;11.284;2023-03-22T15:00:15;8.60;;;5.43;;
5191;SDS011;2615;44.524;11.284;2023-03-22T15:02:46;7.20;;;5.67;;
5191;SDS011;2615;44.524;11.284;2023-03-22T15:05:16;6.30;;;5.53;;
5191;SDS011;2615;44.524;11.284;2023-03-22T15:07:45;6.67;;;5.37;;
5191;SDS011;2615;44.524;11.284;2023-03-22T15:10:15;9.57;;;5.77;;
5191;SDS011;2615;44.524;11.284;2023-03-22T15:12:43;8.87;;;5.53;;
5191;SDS011;2615;44.524;11.284;2023-03-22T15:15:12;7.40;;;5.17;;
5191;SDS011;2615;44.524;11.284;2023-03-22T15:17:41;7.10;;;5.00;;